Flight Track Log - Related Links

Times and Time Zones

All times are in EST time to prevent confusion due to time zone crossing. See the AAY484 flight status page for this flight to view local times or setup timezone preferences in your user account.


Time Position Orientation Groundspeed Altitude Reporting Facility
EST Latitude Longitude Course Direction KTS MPH feet Rate Location/Type
Thu 09:52:01 AM 36.0758 -115.1764 274° West 178 205 3,200  Level Los Angeles Center
Thu 09:52:38 AM 36.0778 -115.2156 274° West 190 219 4,100 1,676 Climbing Los Angeles Center
Thu 09:53:09 AM 36.0772 -115.2533 269° West 207 238 5,100 2,600 Climbing Los Angeles Center
Thu 09:53:38 AM 36.0914 -115.2883 297° West 224 258 6,700 2,951 Climbing Los Angeles Center
Thu 09:54:10 AM 36.1272 -115.2958 350° North 248 285 8,100 2,459 Climbing Los Angeles Center
Thu 09:54:39 AM 36.1667 -115.2769 21° North 294 338 9,200 2,032 Climbing Los Angeles Center
Thu 09:55:12 AM 36.1853 -115.2333 62° Northeast 313 360 10,200 1,596 Climbing Los Angeles Center
Thu 09:56:13 AM 36.1964 -115.1058 84° East 361 415 11,700 1,567 Climbing Los Angeles Center
Thu 09:57:26 AM 36.1967 -114.9681 90° East 401 461 13,700 1,822 Climbing Los Angeles Center
Thu 09:58:28 AM 36.2011 -114.7989 88° East 435 501 15,800 1,839 Climbing Los Angeles Center
Thu 09:59:30 AM 36.2881 -114.6936 44° Northeast 438 504 17,500 1,902 Climbing Los Angeles Center
Thu 10:00:31 AM 36.3886 -114.5981 37° Northeast 452 520 19,700 1,951 Climbing Los Angeles Center
Thu 10:01:33 AM 36.4847 -114.4353 54° Northeast 488 562 21,500 2,146 Climbing Los Angeles Center
Thu 10:02:34 AM 36.5656 -114.2981 54° Northeast 491 565 24,100 2,146 Climbing Los Angeles Center
Thu 10:03:36 AM 36.6478 -114.1581 54° Northeast 480 552 25,900 1,317 Climbing Los Angeles Center
Thu 10:04:37 AM 36.7397 -114.0400 46° Northeast 477 549 26,800 653 Climbing Los Angeles Center
Thu 10:06:03 AM 36.8764 -113.9511 27° Northeast 479 551 27,500 1,176 Climbing Los Angeles Center
Thu 10:07:05 AM 37.0286 -113.8558 27° Northeast 487 560 29,700 1,597 Climbing Los Angeles Center
Thu 10:08:07 AM 37.1500 -113.7825 26° Northeast 484 557 30,800 634 Climbing Los Angeles Center
Thu 10:09:08 AM 37.2719 -113.7058 27° Northeast 487 560 31,000 98 Climbing Los Angeles Center
Thu 10:10:10 AM 37.3964 -113.6281 26° Northeast 496 571 31,000 -48 Level Los Angeles Center
Thu 10:11:12 AM 37.5200 -113.5503 27° Northeast 495 570 30,900  Descending Los Angeles Center
Thu 10:12:14 AM 37.6697 -113.4550 27° Northeast 498 573 31,000 49 Climbing Los Angeles Center
Thu 10:13:15 AM 37.7947 -113.3764 26° Northeast 498 573 31,000  Level Los Angeles Center
Thu 10:14:17 AM 37.9197 -113.2967 27° Northeast 499 574 31,000 194 Level Los Angeles Center
Thu 10:15:19 AM 38.0439 -113.2131 28° Northeast 501 577 31,400 739 Climbing Los Angeles Center
Thu 10:16:35 AM 38.1750 -113.0664 41° Northeast 520 598 32,700 701 Climbing Salt Lake Center
Thu 10:17:36 AM 38.2797 -112.9364 44° Northeast 525 604 33,000 148 Climbing Salt Lake Center
Thu 10:18:37 AM 38.3844 -112.8064 44° Northeast 525 604 33,000  Level Salt Lake Center
Thu 10:19:39 AM 38.4867 -112.6742 45° Northeast 523 602 33,000  Level Salt Lake Center
Thu 10:20:40 AM 38.6097 -112.5161 45° Northeast 523 602 33,000  Level Salt Lake Center
Thu 10:21:41 AM 38.7136 -112.3844 45° Northeast 525 604 33,000  Level Salt Lake Center
Thu 10:22:43 AM 38.8167 -112.2528 45° Northeast 524 603 33,000  Level Salt Lake Center
Thu 10:23:44 AM 38.9189 -112.1208 45° Northeast 523 602 33,000  Level Salt Lake Center
Thu 10:24:45 AM 39.0217 -111.9872 45° Northeast 525 604 33,000 -49 Level Salt Lake Center
Thu 10:25:47 AM 39.1233 -111.8533 46° Northeast 525 604 32,900  Descending Salt Lake Center
Thu 10:26:48 AM 39.2261 -111.7203 45° Northeast 524 603 33,000 49 Climbing Salt Lake Center
Thu 10:27:50 AM 39.3336 -111.5769 46° Northeast 526 605 33,000  Level Salt Lake Center
Thu 10:28:51 AM 39.4353 -111.4444 45° Northeast 523 602 33,000  Level Salt Lake Center
Thu 10:29:53 AM 39.5358 -111.3075 46° Northeast 525 604 33,000 -49 Level Salt Lake Center
Thu 10:30:54 AM 39.6478 -111.1594 45° Northeast 520 598 32,900  Descending Salt Lake Center
Thu 10:31:56 AM 39.7442 -111.0314 46° Northeast 518 596 33,000 49 Climbing Salt Lake Center
Thu 10:32:57 AM 39.8569 -110.8794 46° Northeast 521 600 33,000  Level Salt Lake Center
Thu 10:33:59 AM 39.9544 -110.7478 46° Northeast 523 602 33,000 -49 Level Salt Lake Center
Thu 10:35:00 AM 40.0661 -110.5947 46° Northeast 523 602 32,900  Descending Salt Lake Center
Thu 10:36:02 AM 40.1617 -110.4647 46° Northeast 519 597 33,000 49 Climbing Salt Lake Center
Thu 10:37:03 AM 40.2578 -110.3344 46° Northeast 518 596 33,000 -49 Level Salt Lake Center
Thu 10:38:05 AM 40.3689 -110.1792 47° Northeast 521 600 32,900  Descending Salt Lake Center
Thu 10:39:06 AM 40.4647 -110.0458 47° Northeast 523 602 33,000 49 Climbing Salt Lake Center
Thu 10:40:08 AM 40.5769 -109.8908 46° Northeast 524 603 33,000 -48 Level Salt Lake Center
Thu 10:41:10 AM 40.6722 -109.7556 47° Northeast 524 603 32,900 -49 Descending Salt Lake Center
Thu 10:42:11 AM 40.7683 -109.6217 47° Northeast 525 604 32,900 49 Level Salt Lake Center
Thu 10:43:13 AM 40.8756 -109.4703 47° Northeast 523 602 33,000 49 Climbing Salt Lake Center
Thu 10:44:14 AM 40.9703 -109.3364 47° Northeast 523 602 33,000  Level Salt Lake Center
Thu 10:45:16 AM 41.0811 -109.1761 47° Northeast 529 609 33,000  Level Salt Lake Center
Thu 10:46:18 AM 41.1764 -109.0406 47° Northeast 531 611 33,000  Level Salt Lake Center
Thu 10:47:19 AM 41.2853 -108.8836 47° Northeast 525 604 33,000  Level Salt Lake Center
Thu 10:48:21 AM 41.3781 -108.7503 47° Northeast 521 600 33,000  Level Salt Lake Center
Thu 10:49:22 AM 41.4858 -108.5933 47° Northeast 519 597 33,000  Level Salt Lake Center
Thu 10:50:24 AM 41.5794 -108.4569 47° Northeast 521 600 33,000  Level Salt Lake Center
Thu 10:51:26 AM 41.6867 -108.2972 48° Northeast 519 597 33,000  Level Salt Lake Center
Thu 10:52:27 AM 41.7794 -108.1606 48° Northeast 519 597 33,000  Level Salt Lake Center
Thu 10:53:29 AM 41.8889 -108.0017 47° Northeast 520 598 33,000  Level Salt Lake Center
Thu 10:54:30 AM 41.9792 -107.8622 49° Northeast 519 597 33,000  Level Salt Lake Center
Thu 10:55:32 AM 42.0861 -107.7042 48° Northeast 514 592 33,000  Level Salt Lake Center
Thu 10:56:42 AM 42.1939 -107.5433 48° Northeast 517 595 33,000  Level Denver Center
Thu 10:57:44 AM 42.2850 -107.4014 49° Northeast 522 601 33,000  Level Denver Center
Thu 10:58:37 AM 42.3756 -107.2642 48° Northeast 516 594 33,000  Level Salt Lake Center
Thu 10:59:39 AM 42.4675 -107.1258 48° Northeast 517 595 33,000 -45 Level Salt Lake Center
Thu 11:00:49 AM 42.5889 -106.9383 49° Northeast 518 596 32,900  Descending Denver Center
Thu 11:01:51 AM 42.6742 -106.8092 48° Northeast 516 594 33,000 44 Climbing Denver Center
Thu 11:03:05 AM 42.7792 -106.6439 49° Northeast 517 595 33,000  Level Denver Center
Thu 11:04:07 AM 42.9014 -106.4553 48° Northeast 519 597 33,000  Level Denver Center
Thu 11:05:09 AM 42.9917 -106.3131 49° Northeast 518 596 33,000  Level Denver Center
Thu 11:06:11 AM 43.0817 -106.1697 49° Northeast 518 596 33,000 -48 Level Denver Center
Thu 11:07:13 AM 43.1861 -106.0042 49° Northeast 513 590 32,900 48 Descending Denver Center
Thu 11:08:15 AM 43.2758 -105.8608 49° Northeast 514 592 33,100 774 Climbing Denver Center
Thu 11:09:17 AM 43.3800 -105.6922 50° Northeast 517 595 34,500 927 Climbing Denver Center
Thu 11:10:18 AM 43.4678 -105.5519 49° Northeast 507 583 35,000 244 Climbing Denver Center
Thu 11:11:20 AM 43.5697 -105.3850 50° Northeast 508 585 35,000  Level Denver Center
Thu 11:12:22 AM 43.6572 -105.2417 50° Northeast 508 585 35,000 -48 Level Denver Center
Thu 11:13:24 AM 43.7606 -105.0722 50° Northeast 512 589 34,900  Descending Denver Center
Thu 11:14:26 AM 43.8486 -104.9256 50° Northeast 515 593 35,000  Climbing Denver Center
Thu 11:15:28 AM 43.9361 -104.7808 50° Northeast 512 589 34,900  Descending Denver Center
Thu 11:16:30 AM 44.0372 -104.6108 50° Northeast 511 588 35,000 48 Climbing Denver Center
Thu 11:17:32 AM 44.1239 -104.4672 50° Northeast 508 585 35,000 -48 Level Denver Center
Thu 11:18:34 AM 44.2236 -104.2992 50° Northeast 504 580 34,900  Descending Denver Center
Thu 11:19:36 AM 44.3067 -104.1575 51° Northeast 497 572 35,000 48 Climbing Denver Center
Thu 11:20:38 AM 44.4044 -103.9919 50° Northeast 494 568 35,000  Level Denver Center
Thu 11:21:40 AM 44.4872 -103.8500 51° Northeast 492 566 35,000 -48 Level Denver Center
Thu 11:22:42 AM 44.5831 -103.6822 51° Northeast 493 567 34,900  Descending Denver Center
Thu 11:23:44 AM 44.6664 -103.5394 51° Northeast 494 568 35,000 48 Climbing Denver Center
Thu 11:24:46 AM 44.7461 -103.4000 51° Northeast 494 568 35,000  Level Denver Center
Thu 11:25:48 AM 44.8489 -103.2200 51° Northeast 492 566 35,000  Level Denver Center
Thu 11:26:39 AM 44.9194 -103.1014 50° Northeast 493 567 35,000  Level Minneapolis Center
Thu 11:27:40 AM 45.0047 -102.9494 52° Northeast 493 567 35,000 -49 Level Minneapolis Center
Thu 11:28:41 AM 45.0892 -102.7978 52° Northeast 493 567 34,900  Descending Minneapolis Center
Thu 11:29:43 AM 45.1725 -102.6506 51° Northeast 488 562 35,000 48 Climbing Minneapolis Center
Thu 11:30:45 AM 45.2536 -102.5042 52° Northeast 480 552 35,000  Level Minneapolis Center
Thu 11:31:46 AM 45.3361 -102.3539 52° Northeast 480 552 35,000  Level Minneapolis Center
Thu 11:32:48 AM 45.4344 -102.1753 52° Northeast 480 552 35,000  Level Minneapolis Center
Thu 11:33:49 AM 45.5164 -102.0253 52° Northeast 480 552 35,000 -49 Level Minneapolis Center
Thu 11:34:51 AM 45.5978 -101.8753 52° Northeast 480 552 34,900  Descending Minneapolis Center
Thu 11:35:52 AM 45.6783 -101.7267 52° Northeast 479 551 35,000  Climbing Minneapolis Center
Thu 11:36:54 AM 45.7589 -101.5775 52° Northeast 478 550 34,900 -49 Descending Minneapolis Center
Thu 11:37:55 AM 45.8397 -101.4267 52° Northeast 477 549 34,900 49 Level Minneapolis Center
Thu 11:38:57 AM 45.9189 -101.2761 53° Northeast 477 549 35,000 49 Climbing Minneapolis Center
Thu 11:39:58 AM 45.9989 -101.1275 52° Northeast 475 547 35,000  Level Minneapolis Center
Thu 11:41:00 AM 46.0775 -100.9758 53° Northeast 474 545 35,000  Level Minneapolis Center
Thu 11:42:02 AM 46.1714 -100.7961 53° Northeast 473 544 35,000  Level Minneapolis Center
Thu 11:43:03 AM 46.2500 -100.6461 53° Northeast 473 544 35,000  Level Minneapolis Center
Thu 11:44:05 AM 46.3311 -100.4900 53° Northeast 473 544 35,000  Level Minneapolis Center
Thu 11:45:07 AM 46.4097 -100.3350 54° Northeast 474 545 35,000 -49 Level Minneapolis Center
Thu 11:46:08 AM 46.4897 -100.1781 53° Northeast 478 550 34,900 -49 Descending Minneapolis Center
Thu 11:47:10 AM 46.5728 -100.0147 53° Northeast 479 551 34,900  Level Minneapolis Center
Thu 11:48:12 AM 46.6508 -99.8581 54° Northeast 479 551 34,900  Level Minneapolis Center
Thu 11:49:13 AM 46.7303 -99.7036 53° Northeast 479 551 34,900  Level Minneapolis Center
Thu 11:50:15 AM 46.8092 -99.5447 54° Northeast 480 552 34,900 -774 Level Minneapolis Center
Thu 11:51:17 AM 46.8878 -99.3872 54° Northeast 481 554 33,300 -2,341 Descending Minneapolis Center
Thu 11:52:18 AM 46.9828 -99.1972 54° Northeast 481 554 30,100 -2,244 Descending Minneapolis Center
Thu 11:53:20 AM 47.0583 -99.0414 55° Northeast 475 547 28,700 -1,597 Descending Minneapolis Center
Thu 11:54:22 AM 47.1311 -98.8956 54° Northeast 453 521 26,800 -1,902 Descending Minneapolis Center
Thu 11:55:23 AM 47.2014 -98.7508 54° Northeast 440 506 24,800 -1,902 Descending Minneapolis Center
Thu 11:56:25 AM 47.2703 -98.6083 54° Northeast 433 498 22,900 -2,081 Descending Minneapolis Center
Thu 11:57:27 AM 47.3372 -98.4703 54° Northeast 422 486 20,500 -2,244 Descending Minneapolis Center
Thu 11:58:28 AM 47.4039 -98.3336 54° Northeast 414 476 18,300 -2,195 Descending Minneapolis Center
Thu 11:59:30 AM 47.4803 -98.1722 55° Northeast 404 465 16,000 -1,926 Descending Minneapolis Center
Thu 11:59:49 AM 47.4944 -98.1439 53° Northeast 385 443 15,700 -1,839 Descending Minneapolis Center
Thu 12:00:32 PM 47.5389 -98.0453 56° Northeast 390 449 14,100 -2,111 Descending Minneapolis Center
Thu 12:00:43 PM 47.5494 -98.0247 53° Northeast 362 417 13,800 -2,129 Descending Minneapolis Center
Thu 12:01:34 PM 47.5725 -97.9036 74° East 366 421 11,900 -2,149 Descending Minneapolis Center
Thu 12:01:50 PM 47.5847 -97.8650 65° Northeast 359 413 11,400 -1,258 Descending Minneapolis Center
Thu 12:02:36 PM 47.6053 -97.7658 73° East 353 406 10,600 -873 Descending Minneapolis Center
Thu 12:02:45 PM 47.6103 -97.7469 69° East 345 397 10,600 -1,279 Level Minneapolis Center
Thu 12:03:37 PM 47.6306 -97.6458 73° East 328 377 9,300 -1,300 Descending Minneapolis Center
Thu 12:03:45 PM 47.6339 -97.6350 65° Northeast 285 328 9,300 -1,839 Level Minneapolis Center
Thu 12:04:39 PM 47.6517 -97.5408 74° East 288 331 7,400 -2,149 Descending Minneapolis Center
Thu 12:04:52 PM 47.6550 -97.5172 78° East 251 289 6,900 -2,323 Descending Minneapolis Center
Thu 12:05:41 PM 47.6742 -97.4333 71° East 262 302 5,000 -2,100 Descending Minneapolis Center
Thu 12:05:52 PM 47.6772 -97.4147 76° East 246 283 4,800 -833 Descending Minneapolis Center
Thu 12:06:53 PM 47.6958 -97.3247 73° East 237 273 4,000 -696 Descending Minneapolis Center
Thu 12:07:44 PM 47.7114 -97.2486 73° East 230 265 3,500 -600 Descending Minneapolis Center
Thu 12:07:53 PM 47.7144 -97.2350 72° East 222 255 3,400 -484 Descending Minneapolis Center
Thu 12:08:46 PM 47.7467 -97.2022 34° Northeast 193 222 3,000 -393 Descending Minneapolis Center
Thu 12:08:54 PM 47.7575 -97.1908 35° Northeast 164 189 3,000  Level Minneapolis Center
Thu 12:09:48 PM 47.7903 -97.1836 North 157 181 3,000  Level Minneapolis Center
Thu 12:09:55 PM 47.7925 -97.1822 23° Northeast 121 139 3,000  Level Minneapolis Center
Thu 12:10:55 PM 47.8322 -97.1819 360° North 131 151 3,000 -310 Level Minneapolis Center
Thu 12:11:51 PM 47.8622 -97.1831 359° North 135 155 2,400 -590 Descending Minneapolis Center
Thu 12:11:56 PM 47.8636 -97.1833 352° North 123 142 2,400 -677 Level Minneapolis Center
Thu 12:12:53 PM 47.8933 -97.1825 North 124 143 1,700 -700 Descending Minneapolis Center
Thu 12:12:56 PM 47.8969 -97.1811 14° North 110 127 1,700 -621 Level Minneapolis Center
Thu 12:13:51 PM 47.9264 -97.1825 358° North 119 137 1,100 -610 Descending Minneapolis Center
Thu 12:13:55 PM 47.9250 -97.1833 202° Southwest 120 138 1,100  Level Minneapolis Center
Thu 12:15:00 PM 47.9333 -97.1667 32° Northeast  Level FlightAware Approximate

Login

Don't have an account? Register now (free) for customized features, flight alerts, and more!